EDW281 EICK-LSZH
Flight info
| Callsign | EDW281 |
|---|---|
| Flight time | N/A |
| Altitude | 39000 |
| Route | ELTIG1S ELTIG DCT NORLA DCT PEWBI DCT OXLOW M140 SAM L620 MID/N0431F350 UL612 VEULE DCT TEPRI UN491 POGZI DCT GELTA DCT MANAG DCT PEVIT DCT BLM |
| Aircraft | A20N/M-SDE2E3FGHIJ1RWXY/LB1 |
Departure
| Time | 2026-04-28 12:33 |
|---|---|
| Airport | Cork International Airport (EICK) |
Arrival
| Time | N/A |
|---|---|
| Airport | Zürich Airport (LSZH) |
| Time | Latitude | Longitude | Altitude | Speed | Heading |
|---|---|---|---|---|---|
| 2026-04-28 11:28 | 51.84846 | -8.49056 | 498 ft | 0 kts | 70° |
| 2026-04-28 12:24 | 51.84845 | -8.49056 | 498 ft | 0 kts | 70° |
| 2026-04-28 12:25 | 51.84845 | -8.49057 | 498 ft | 0 kts | 70° |
| 2026-04-28 12:26 | 51.84842 | -8.49073 | 498 ft | 2 kts | 70° |
| 2026-04-28 12:26 | 51.84837 | -8.49095 | 497 ft | 2 kts | 70° |
| 2026-04-28 12:26 | 51.84831 | -8.49118 | 497 ft | 2 kts | 70° |
| 2026-04-28 12:26 | 51.84826 | -8.49141 | 496 ft | 2 kts | 70° |
| 2026-04-28 12:27 | 51.84821 | -8.49163 | 496 ft | 2 kts | 70° |
| 2026-04-28 12:27 | 51.84816 | -8.49186 | 496 ft | 1 kts | 70° |
| 2026-04-28 12:27 | 51.84813 | -8.49200 | 495 ft | 2 kts | 57° |
| 2026-04-28 12:27 | 51.84801 | -8.49215 | 495 ft | 2 kts | 13° |
| 2026-04-28 12:28 | 51.84792 | -8.49216 | 495 ft | 1 kts | 350° |
| 2026-04-28 12:28 | 51.84785 | -8.49213 | 495 ft | 0 kts | 348° |
| 2026-04-28 12:30 | 51.84790 | -8.49215 | 495 ft | 0 kts | 348° |
| 2026-04-28 12:30 | 51.84794 | -8.49216 | 495 ft | 1 kts | 348° |
| 2026-04-28 12:30 | 51.84818 | -8.49224 | 495 ft | 4 kts | 348° |
| 2026-04-28 12:31 | 51.84862 | -8.49242 | 495 ft | 7 kts | 341° |
| 2026-04-28 12:31 | 51.84923 | -8.49273 | 496 ft | 10 kts | 349° |
| 2026-04-28 12:31 | 51.85003 | -8.49311 | 496 ft | 13 kts | 341° |
| 2026-04-28 12:31 | 51.85097 | -8.49365 | 496 ft | 15 kts | 340° |
| 2026-04-28 12:32 | 51.85113 | -8.49498 | 495 ft | 16 kts | 219° |
| 2026-04-28 12:32 | 51.85024 | -8.49586 | 493 ft | 6 kts | 239° |
| 2026-04-28 12:32 | 51.84988 | -8.49626 | 493 ft | 7 kts | 161° |
| 2026-04-28 12:32 | 51.84821 | -8.49525 | 493 ft | 60 kts | 160° |
| 2026-04-28 12:33 | 51.84187 | -8.49151 | 486 ft | 131 kts | 159° |
| 2026-04-28 12:33 | 51.83176 | -8.48569 | 698 ft | 167 kts | 158° |
| 2026-04-28 12:33 | 51.82035 | -8.47994 | 1351 ft | 174 kts | 160° |
| 2026-04-28 12:33 | 51.80914 | -8.47455 | 2190 ft | 170 kts | 157° |
| 2026-04-28 12:34 | 51.79803 | -8.46809 | 2875 ft | 169 kts | 143° |
| 2026-04-28 12:34 | 51.79136 | -8.45452 | 3439 ft | 159 kts | 95° |
| 2026-04-28 12:34 | 51.79119 | -8.43649 | 3968 ft | 167 kts | 84° |
| 2026-04-28 12:34 | 51.79142 | -8.41686 | 4449 ft | 184 kts | 87° |
| 2026-04-28 12:35 | 51.79109 | -8.39538 | 4929 ft | 202 kts | 89° |
| 2026-04-28 12:35 | 51.79022 | -8.37123 | 5329 ft | 227 kts | 91° |
| 2026-04-28 12:35 | 51.78888 | -8.34492 | 5898 ft | 246 kts | 92° |
| 2026-04-28 12:35 | 51.78721 | -8.31700 | 6683 ft | 254 kts | 92° |
| 2026-04-28 12:36 | 51.78538 | -8.28849 | 7638 ft | 257 kts | 92° |
| 2026-04-28 12:36 | 51.78347 | -8.25981 | 8529 ft | 261 kts | 92° |
| 2026-04-28 12:36 | 51.78155 | -8.23112 | 9391 ft | 265 kts | 92° |
| 2026-04-28 12:36 | 51.77954 | -8.20152 | 10260 ft | 268 kts | 92° |
| 2026-04-28 12:37 | 51.77748 | -8.17163 | 11017 ft | 275 kts | 92° |
| 2026-04-28 12:37 | 51.77531 | -8.13980 | 11499 ft | 291 kts | 92° |
| 2026-04-28 12:37 | 51.77306 | -8.10726 | 12245 ft | 297 kts | 92° |
| 2026-04-28 12:37 | 51.77076 | -8.07453 | 13084 ft | 300 kts | 92° |
| 2026-04-28 12:38 | 51.76840 | -8.04107 | 13865 ft | 303 kts | 92° |
| 2026-04-28 12:38 | 51.76601 | -8.00722 | 14589 ft | 307 kts | 91° |
| 2026-04-28 12:38 | 51.76354 | -7.97261 | 15359 ft | 311 kts | 91° |
| 2026-04-28 12:38 | 51.76110 | -7.93847 | 16093 ft | 313 kts | 91° |
| 2026-04-28 12:39 | 51.75858 | -7.90328 | 16819 ft | 316 kts | 90° |
| 2026-04-28 12:39 | 51.75607 | -7.86816 | 17515 ft | 319 kts | 90° |
| 2026-04-28 12:39 | 51.75302 | -7.83272 | 18206 ft | 323 kts | 93° |
| 2026-04-28 12:39 | 51.74856 | -7.79709 | 18929 ft | 326 kts | 95° |
| 2026-04-28 12:40 | 51.74375 | -7.76137 | 19614 ft | 328 kts | 95° |
| 2026-04-28 12:40 | 51.73889 | -7.72544 | 20225 ft | 332 kts | 95° |
| 2026-04-28 12:40 | 51.73391 | -7.68874 | 20847 ft | 336 kts | 95° |
| 2026-04-28 12:40 | 51.72892 | -7.65220 | 21458 ft | 339 kts | 95° |
| 2026-04-28 12:41 | 51.72384 | -7.61508 | 22072 ft | 342 kts | 95° |
| 2026-04-28 12:41 | 51.71869 | -7.57753 | 22662 ft | 345 kts | 95° |
| 2026-04-28 12:41 | 51.71352 | -7.53986 | 23261 ft | 348 kts | 95° |
| 2026-04-28 12:41 | 51.70830 | -7.50200 | 23827 ft | 351 kts | 95° |
| 2026-04-28 12:42 | 51.70291 | -7.46312 | 24400 ft | 354 kts | 94° |
| 2026-04-28 12:42 | 51.69754 | -7.42435 | 24964 ft | 357 kts | 94° |
| 2026-04-28 12:42 | 51.69214 | -7.38542 | 25543 ft | 359 kts | 94° |
| 2026-04-28 12:42 | 51.68666 | -7.34609 | 26076 ft | 362 kts | 95° |
| 2026-04-28 12:43 | 51.68112 | -7.30645 | 26589 ft | 365 kts | 95° |
| 2026-04-28 12:43 | 51.67551 | -7.26635 | 27135 ft | 367 kts | 95° |
| 2026-04-28 12:43 | 51.66991 | -7.22649 | 27651 ft | 370 kts | 95° |
| 2026-04-28 12:43 | 51.66421 | -7.18607 | 28112 ft | 373 kts | 95° |
| 2026-04-28 12:44 | 51.65847 | -7.14532 | 28583 ft | 375 kts | 95° |
| 2026-04-28 12:44 | 51.65265 | -7.10424 | 29034 ft | 378 kts | 95° |
| 2026-04-28 12:44 | 51.64681 | -7.06314 | 29459 ft | 380 kts | 95° |
| 2026-04-28 12:44 | 51.64094 | -7.02187 | 29879 ft | 382 kts | 95° |
| 2026-04-28 12:45 | 51.63496 | -6.98008 | 30269 ft | 384 kts | 95° |
| 2026-04-28 12:45 | 51.62898 | -6.93834 | 30664 ft | 386 kts | 95° |
| 2026-04-28 12:45 | 51.62288 | -6.89587 | 31067 ft | 387 kts | 95° |
| 2026-04-28 12:45 | 51.61683 | -6.85428 | 31412 ft | 389 kts | 96° |
| 2026-04-28 12:46 | 51.61028 | -6.81206 | 31760 ft | 391 kts | 96° |
| 2026-04-28 12:46 | 51.60356 | -6.76969 | 32102 ft | 392 kts | 96° |
| 2026-04-28 12:46 | 51.59681 | -6.72728 | 32440 ft | 392 kts | 96° |
| 2026-04-28 12:46 | 51.59004 | -6.68480 | 32822 ft | 392 kts | 96° |
| 2026-04-28 12:47 | 51.58331 | -6.64265 | 33243 ft | 390 kts | 96° |
| 2026-04-28 12:47 | 51.57661 | -6.60076 | 33656 ft | 388 kts | 96° |
| 2026-04-28 12:47 | 51.56993 | -6.55893 | 34006 ft | 387 kts | 95° |
| 2026-04-28 12:47 | 51.56105 | -6.50342 | 34402 ft | 388 kts | 96° |
| 2026-04-28 12:48 | 51.55658 | -6.47554 | 34561 ft | 389 kts | 95° |